createdAt,value
2023-03-25T00:00:19.147Z,12.18
2023-03-25T00:02:50.280Z,12.14
2023-03-25T00:05:19.749Z,12.08
2023-03-25T00:07:49.679Z,11.80
2023-03-25T00:10:16.785Z,11.97
2023-03-25T00:12:43.744Z,11.94
2023-03-25T00:15:12.342Z,11.83
2023-03-25T00:17:39.608Z,11.79
2023-03-25T00:20:11.803Z,11.74
2023-03-25T00:22:44.483Z,11.69
2023-03-25T00:25:18.957Z,11.64
2023-03-25T00:27:47.912Z,11.61
2023-03-25T00:30:16.685Z,11.47
2023-03-25T00:32:49.961Z,11.20
2023-03-25T00:35:19.485Z,11.30
2023-03-25T00:37:52.172Z,11.19
2023-03-25T00:40:19.046Z,11.37
2023-03-25T00:42:50.314Z,11.39
2023-03-25T00:45:17.491Z,11.55
2023-03-25T00:47:44.340Z,11.53
2023-03-25T00:50:11.809Z,11.51
2023-03-25T00:52:38.725Z,11.44
2023-03-25T00:55:08.482Z,11.63
2023-03-25T00:57:36.427Z,11.58
2023-03-25T01:00:08.452Z,11.65
2023-03-25T01:02:35.859Z,11.70
2023-03-25T01:05:04.209Z,11.67
2023-03-25T01:07:31.911Z,11.73
2023-03-25T01:09:59.819Z,11.73
2023-03-25T01:12:27.514Z,11.70
2023-03-25T01:14:54.877Z,11.71
2023-03-25T01:17:21.779Z,11.66
2023-03-25T01:19:48.650Z,11.67
2023-03-25T01:22:15.620Z,11.58
2023-03-25T01:24:42.510Z,11.36
2023-03-25T01:27:09.301Z,11.29
2023-03-25T01:29:36.253Z,11.08
2023-03-25T01:32:03.239Z,11.03
2023-03-25T01:34:33.421Z,11.20
2023-03-25T01:37:01.092Z,11.30
2023-03-25T01:39:27.964Z,11.23
2023-03-25T01:41:55.209Z,11.02
2023-03-25T01:44:22.259Z,11.07
2023-03-25T01:46:53.741Z,11.04
2023-03-25T01:49:31.325Z,10.93
2023-03-25T01:52:06.279Z,10.79
2023-03-25T01:54:33.567Z,11.06
2023-03-25T01:57:00.773Z,11.14
2023-03-25T01:59:29.324Z,10.90
2023-03-25T02:01:59.787Z,11.15
2023-03-25T02:04:45.537Z,11.33
2023-03-25T02:07:12.998Z,11.16
2023-03-25T02:09:39.977Z,11.28
2023-03-25T02:12:06.804Z,11.12
2023-03-25T02:14:36.204Z,11.08
2023-03-25T02:17:05.723Z,11.20
2023-03-25T02:20:08.347Z,11.15
2023-03-25T02:23:12.586Z,10.99
2023-03-25T02:26:11.886Z,10.94
2023-03-25T02:29:05.443Z,10.75
2023-03-25T02:31:55.502Z,10.77
2023-03-25T02:35:01.439Z,10.55
2023-03-25T02:38:07.554Z,10.67
2023-03-25T02:40:39.390Z,10.76
2023-03-25T02:43:20.716Z,10.73
2023-03-25T02:45:54.532Z,10.64
2023-03-25T02:48:38.006Z,10.73
2023-03-25T02:51:14.359Z,10.75
2023-03-25T02:53:44.952Z,10.96
2023-03-25T02:56:17.047Z,10.76
2023-03-25T02:58:45.978Z,10.87
2023-03-25T03:01:14.886Z,10.74
2023-03-25T03:03:42.054Z,10.66
2023-03-25T03:06:16.226Z,10.58
2023-03-25T03:08:51.770Z,10.64
2023-03-25T03:12:03.164Z,10.52
2023-03-25T03:14:56.536Z,10.58
2023-03-25T03:18:08.389Z,10.38
2023-03-25T03:20:41.190Z,10.33
2023-03-25T03:23:33.709Z,10.21
2023-03-25T03:26:20.608Z,10.37
2023-03-25T03:29:12.348Z,10.34
2023-03-25T03:31:48.621Z,10.44
2023-03-25T03:35:02.468Z,10.30
2023-03-25T03:37:41.501Z,10.12
2023-03-25T03:40:16.465Z,10.13
2023-03-25T03:43:13.939Z,10.21
2023-03-25T03:45:48.591Z,10.17
2023-03-25T03:48:27.052Z,10.18
2023-03-25T03:51:04.064Z,10.21
2023-03-25T03:53:36.907Z,10.15
2023-03-25T03:56:13.869Z,10.13
2023-03-25T03:58:43.340Z,10.16
2023-03-25T04:01:48.031Z,10.16
2023-03-25T04:04:27.138Z,10.06
2023-03-25T04:07:14.597Z,10.25
2023-03-25T04:10:06.176Z,10.06
2023-03-25T04:12:38.459Z,10.08
2023-03-25T04:15:07.088Z,10.09
2023-03-25T04:17:33.989Z,10.09
2023-03-25T04:20:07.076Z,10.15
2023-03-25T04:22:33.900Z,10.33
2023-03-25T04:25:01.083Z,10.29
2023-03-25T04:27:29.831Z,10.36
2023-03-25T04:29:57.703Z,10.30
2023-03-25T04:32:27.822Z,10.43
2023-03-25T04:34:58.423Z,10.46
2023-03-25T04:37:26.075Z,10.47
2023-03-25T04:40:00.204Z,10.44
2023-03-25T04:42:32.540Z,10.35
2023-03-25T04:44:59.760Z,10.50
2023-03-25T04:47:26.989Z,10.46
2023-03-25T04:49:53.898Z,10.59
2023-03-25T04:52:20.892Z,10.63
2023-03-25T04:54:47.829Z,10.50
2023-03-25T04:57:15.275Z,10.60
2023-03-25T04:59:42.340Z,10.60
2023-03-25T05:02:13.265Z,10.41
2023-03-25T05:04:47.479Z,10.48
2023-03-25T05:07:16.249Z,10.39
2023-03-25T05:09:43.461Z,10.56
2023-03-25T05:12:11.553Z,10.35
2023-03-25T05:14:38.629Z,10.50
2023-03-25T05:17:05.683Z,10.41
2023-03-25T05:19:35.055Z,10.36
2023-03-25T05:22:04.495Z,10.39
2023-03-25T05:24:31.539Z,10.31
2023-03-25T05:27:02.324Z,10.37
2023-03-25T05:29:33.826Z,10.23
2023-03-25T05:32:00.721Z,10.16
2023-03-25T05:34:29.915Z,10.29
2023-03-25T05:36:57.263Z,10.25
2023-03-25T05:39:24.387Z,10.29
2023-03-25T05:41:55.530Z,10.25
2023-03-25T05:44:22.376Z,10.23
2023-03-25T05:46:49.210Z,10.13
2023-03-25T05:49:16.066Z,9.87
2023-03-25T05:51:45.044Z,9.96
2023-03-25T05:54:12.152Z,9.80
2023-03-25T05:56:40.098Z,9.93
2023-03-25T05:59:08.132Z,9.99
2023-03-25T06:01:37.725Z,9.98
2023-03-25T06:04:04.879Z,10.00
2023-03-25T06:06:34.223Z,10.07
2023-03-25T06:09:02.197Z,9.71
2023-03-25T06:11:29.501Z,9.75
2023-03-25T06:13:56.733Z,9.77
2023-03-25T06:16:29.547Z,9.83
2023-03-25T06:18:59.681Z,9.77
2023-03-25T06:21:33.273Z,9.80
2023-03-25T06:24:03.712Z,9.72
2023-03-25T06:26:30.624Z,9.91
2023-03-25T06:28:58.443Z,9.92
2023-03-25T06:31:27.030Z,9.95
2023-03-25T06:33:56.010Z,9.81
2023-03-25T06:36:25.552Z,9.83
2023-03-25T06:38:53.235Z,9.78
2023-03-25T06:41:20.957Z,9.79
2023-03-25T06:43:48.807Z,9.84
2023-03-25T06:46:16.755Z,9.94
2023-03-25T06:48:43.673Z,9.97
2023-03-25T06:51:11.246Z,10.00
2023-03-25T06:53:38.168Z,9.94
2023-03-25T06:56:05.356Z,9.99
2023-03-25T06:58:34.806Z,9.96
2023-03-25T07:01:07.016Z,9.98
2023-03-25T07:03:38.605Z,9.99
2023-03-25T07:06:06.840Z,10.01
2023-03-25T07:08:34.207Z,10.03
2023-03-25T07:11:07.298Z,10.11
2023-03-25T07:13:34.870Z,10.19
2023-03-25T07:16:01.988Z,10.07
2023-03-25T07:18:29.013Z,9.95
2023-03-25T07:20:55.986Z,10.08
2023-03-25T07:23:22.894Z,10.24
2023-03-25T07:25:50.046Z,10.18
2023-03-25T07:28:17.099Z,10.26
2023-03-25T07:30:43.938Z,10.25
2023-03-25T07:33:10.799Z,10.11
2023-03-25T07:35:38.015Z,10.13
2023-03-25T07:38:04.990Z,10.23
2023-03-25T07:40:31.779Z,10.32
2023-03-25T07:42:58.596Z,10.34
2023-03-25T07:45:25.534Z,10.35
2023-03-25T07:47:53.301Z,10.33
2023-03-25T07:50:25.038Z,10.38
2023-03-25T07:52:53.524Z,10.42
2023-03-25T07:55:20.360Z,10.47
2023-03-25T07:57:47.363Z,10.45
2023-03-25T08:00:14.876Z,10.48
2023-03-25T08:02:41.822Z,10.49
2023-03-25T08:05:09.597Z,10.66
2023-03-25T08:07:36.537Z,10.57
2023-03-25T08:10:04.021Z,10.62
2023-03-25T08:12:30.881Z,10.69
2023-03-25T08:14:57.881Z,10.73
2023-03-25T08:17:24.735Z,10.71
2023-03-25T08:19:51.554Z,10.74
2023-03-25T08:22:18.445Z,10.68
2023-03-25T08:24:45.326Z,10.67
2023-03-25T08:27:16.376Z,10.75
2023-03-25T08:29:45.013Z,10.69
2023-03-25T08:32:11.889Z,10.85
2023-03-25T08:34:40.116Z,10.74
2023-03-25T08:37:08.084Z,10.82
2023-03-25T08:39:39.830Z,10.95
2023-03-25T08:42:09.046Z,10.68
2023-03-25T08:44:36.340Z,11.01
2023-03-25T08:47:03.422Z,11.07
2023-03-25T08:49:30.492Z,10.63
2023-03-25T08:51:59.142Z,10.61
2023-03-25T08:54:27.202Z,10.57
2023-03-25T08:56:54.247Z,10.50
2023-03-25T08:59:21.405Z,10.60
2023-03-25T09:01:48.531Z,10.44
2023-03-25T09:04:15.763Z,10.58
2023-03-25T09:06:47.471Z,10.51
2023-03-25T09:09:16.475Z,10.55
2023-03-25T09:11:43.955Z,10.64
2023-03-25T09:14:10.990Z,10.75
2023-03-25T09:16:37.824Z,10.81
2023-03-25T09:19:04.729Z,10.68
2023-03-25T09:21:31.598Z,10.72
2023-03-25T09:23:58.418Z,10.67
2023-03-25T09:26:26.201Z,10.65
2023-03-25T09:28:55.424Z,10.60
2023-03-25T09:31:23.662Z,10.53
2023-03-25T09:33:50.605Z,10.55
2023-03-25T09:36:17.464Z,10.60
2023-03-25T09:38:44.327Z,10.62
2023-03-25T09:41:26.746Z,10.70
2023-03-25T09:44:17.460Z,10.48
2023-03-25T09:46:44.833Z,10.73
2023-03-25T09:49:25.159Z,10.80
2023-03-25T09:51:53.941Z,10.87
2023-03-25T09:54:38.747Z,10.84
2023-03-25T09:57:09.292Z,10.82
2023-03-25T09:59:49.204Z,10.88
2023-03-25T10:02:40.045Z,10.82
2023-03-25T10:05:44.869Z,10.89
2023-03-25T10:08:33.890Z,10.93
2023-03-25T10:11:15.829Z,11.02
2023-03-25T10:14:20.371Z,10.85
2023-03-25T10:17:05.699Z,10.95
2023-03-25T10:20:01.758Z,11.05
2023-03-25T10:22:39.635Z,11.20
2023-03-25T10:25:16.333Z,11.26
2023-03-25T10:27:51.033Z,11.35
2023-03-25T10:30:35.466Z,11.26
2023-03-25T10:33:39.135Z,11.50
2023-03-25T10:36:14.057Z,11.55
2023-03-25T10:38:42.006Z,11.63
2023-03-25T10:41:37.737Z,11.68
2023-03-25T10:44:11.828Z,11.72
2023-03-25T10:46:48.762Z,11.85
2023-03-25T10:49:37.144Z,11.90
2023-03-25T10:52:04.447Z,11.81
2023-03-25T10:54:40.016Z,12.05
2023-03-25T10:57:09.830Z,12.04
2023-03-25T11:00:16.740Z,12.20
2023-03-25T11:02:44.269Z,12.11
2023-03-25T11:05:15.666Z,12.26
2023-03-25T11:07:58.815Z,12.23
2023-03-25T11:10:34.312Z,12.19
2023-03-25T11:13:06.836Z,12.14
2023-03-25T11:15:41.345Z,12.28
2023-03-25T11:18:27.645Z,12.25
2023-03-25T11:21:14.526Z,12.35
2023-03-25T11:23:47.914Z,12.12
2023-03-25T11:26:48.833Z,12.06
2023-03-25T11:29:24.826Z,12.15
2023-03-25T11:32:08.425Z,12.32
2023-03-25T11:34:42.402Z,12.25
2023-03-25T11:37:22.686Z,12.30
2023-03-25T11:39:55.953Z,12.46
2023-03-25T11:42:39.462Z,12.44
2023-03-25T11:45:07.257Z,12.42
2023-03-25T11:47:38.444Z,12.39
2023-03-25T11:50:07.202Z,12.72
2023-03-25T11:52:44.822Z,12.81
2023-03-25T11:55:23.473Z,12.64
2023-03-25T11:57:51.847Z,12.62
2023-03-25T12:00:47.896Z,12.52
2023-03-25T12:03:14.629Z,12.33
2023-03-25T12:05:42.408Z,12.26
2023-03-25T12:08:16.119Z,12.28
2023-03-25T12:11:07.110Z,12.28
2023-03-25T12:14:02.475Z,12.44
2023-03-25T12:16:50.438Z,12.70
2023-03-25T12:19:20.347Z,12.75
2023-03-25T12:22:25.089Z,12.73
2023-03-25T12:25:15.205Z,12.81
2023-03-25T12:28:24.130Z,12.82
2023-03-25T12:31:22.729Z,12.87
2023-03-25T12:34:27.786Z,12.97
2023-03-25T12:37:30.041Z,12.95
2023-03-25T12:40:42.838Z,13.08
2023-03-25T12:43:37.050Z,13.14
2023-03-25T12:46:37.676Z,13.24
2023-03-25T12:49:20.825Z,13.25
2023-03-25T12:52:09.441Z,13.29
2023-03-25T12:54:45.280Z,13.30
2023-03-25T12:58:02.246Z,13.18
2023-03-25T13:00:53.401Z,13.03
2023-03-25T13:03:52.313Z,12.77
2023-03-25T13:06:31.491Z,12.83
2023-03-25T13:09:11.683Z,12.82
2023-03-25T13:11:47.619Z,12.51
2023-03-25T13:14:33.835Z,12.62
2023-03-25T13:17:07.351Z,12.46
2023-03-25T13:19:39.208Z,12.52
2023-03-25T13:22:33.484Z,12.53
2023-03-25T13:25:05.986Z,12.60
2023-03-25T13:27:38.710Z,12.53
2023-03-25T13:30:17.922Z,12.60
2023-03-25T13:32:53.718Z,12.60
2023-03-25T13:35:43.786Z,12.61
2023-03-25T13:38:24.770Z,12.71
2023-03-25T13:41:09.528Z,12.75
2023-03-25T13:43:57.290Z,12.88
2023-03-25T13:47:05.295Z,12.78
2023-03-25T13:49:57.671Z,12.72
2023-03-25T13:52:29.958Z,12.80
2023-03-25T13:55:04.606Z,12.77
2023-03-25T13:58:05.519Z,12.86
2023-03-25T14:00:47.613Z,12.91
2023-03-25T14:03:23.438Z,12.95
2023-03-25T14:06:29.486Z,13.02
2023-03-25T14:09:36.505Z,13.01
2023-03-25T14:12:11.585Z,12.90
2023-03-25T14:14:57.772Z,13.05
2023-03-25T14:17:26.840Z,13.07
2023-03-25T14:19:58.347Z,13.09
2023-03-25T14:22:31.883Z,13.07
2023-03-25T14:25:01.089Z,13.05
2023-03-25T14:27:32.478Z,12.86
2023-03-25T14:30:05.795Z,13.09
2023-03-25T14:32:44.619Z,13.02
2023-03-25T14:35:33.097Z,12.49
2023-03-25T14:38:08.915Z,12.88
2023-03-25T14:43:27.423Z,12.90
2023-03-25T14:46:13.223Z,12.99
2023-03-25T14:48:54.495Z,12.92
2023-03-25T14:51:26.489Z,12.92
2023-03-25T14:54:18.038Z,12.93
2023-03-25T14:57:08.326Z,12.93
2023-03-25T14:59:53.285Z,13.02
2023-03-25T15:02:29.053Z,13.02
2023-03-25T15:05:09.830Z,13.05
2023-03-25T15:07:43.332Z,13.25
2023-03-25T15:10:32.493Z,13.35
2023-03-25T15:13:27.645Z,13.49
2023-03-25T15:16:03.057Z,13.50
2023-03-25T15:18:36.117Z,13.59
2023-03-25T15:21:09.149Z,13.58
2023-03-25T15:23:47.555Z,13.69
2023-03-25T15:26:39.591Z,13.65
2023-03-25T15:29:32.083Z,13.69
2023-03-25T15:32:44.185Z,13.84
2023-03-25T15:35:37.458Z,13.85
2023-03-25T15:38:34.837Z,13.96
2023-03-25T15:42:02.150Z,13.98
2023-03-25T15:44:47.466Z,14.09
2023-03-25T15:47:54.169Z,14.10
2023-03-25T15:51:05.018Z,13.89
2023-03-25T15:53:41.768Z,13.84
2023-03-25T15:56:17.759Z,13.88
2023-03-25T15:59:05.721Z,13.93
2023-03-25T16:01:39.627Z,13.90
2023-03-25T16:04:38.176Z,13.86
2023-03-25T16:07:07.814Z,13.90
2023-03-25T16:09:41.588Z,13.69
2023-03-25T16:12:11.012Z,13.86
2023-03-25T16:14:39.347Z,13.91
2023-03-25T16:17:07.695Z,13.84
2023-03-25T16:19:54.602Z,13.84
2023-03-25T16:22:36.083Z,13.88
2023-03-25T16:25:11.877Z,13.85
2023-03-25T16:27:45.330Z,13.90
2023-03-25T16:30:23.259Z,13.91
2023-03-25T16:32:50.509Z,13.85
2023-03-25T16:35:26.859Z,13.90
2023-03-25T16:37:58.023Z,13.81
2023-03-25T16:40:41.014Z,13.72
2023-03-25T16:43:19.408Z,13.87
2023-03-25T16:45:48.466Z,13.68
2023-03-25T16:48:35.932Z,13.66
2023-03-25T16:51:13.187Z,13.74
2023-03-25T16:53:41.883Z,13.73
2023-03-25T16:56:14.800Z,13.79
2023-03-25T16:59:11.775Z,13.69
2023-03-25T17:01:42.678Z,13.65
2023-03-25T17:04:22.284Z,13.67
2023-03-25T17:06:54.861Z,13.76
2023-03-25T17:09:28.285Z,13.83
2023-03-25T17:11:57.742Z,13.65
2023-03-25T17:14:36.974Z,13.77
2023-03-25T17:17:36.836Z,13.65
2023-03-25T17:20:11.129Z,13.68
2023-03-25T17:22:39.642Z,13.52
2023-03-25T17:25:32.026Z,13.52
2023-03-25T17:28:14.302Z,13.49
2023-03-25T17:30:45.084Z,13.48
2023-03-25T17:33:35.999Z,13.54
2023-03-25T17:36:08.837Z,13.40
2023-03-25T17:38:44.815Z,13.43
2023-03-25T17:41:14.563Z,13.48
2023-03-25T17:43:51.305Z,13.44
2023-03-25T17:46:36.351Z,13.25
2023-03-25T17:49:19.362Z,13.11
2023-03-25T17:51:46.774Z,13.27
2023-03-25T17:54:14.599Z,13.18
2023-03-25T17:56:42.137Z,13.18
2023-03-25T17:59:21.492Z,13.19
2023-03-25T18:01:50.068Z,13.24
2023-03-25T18:04:19.850Z,13.15
2023-03-25T18:06:47.029Z,13.21
2023-03-25T18:09:18.399Z,12.92
2023-03-25T18:11:48.785Z,12.89
2023-03-25T18:14:15.909Z,12.80
2023-03-25T18:16:43.042Z,12.77
2023-03-25T18:19:23.264Z,12.79
2023-03-25T18:21:50.194Z,12.81
2023-03-25T18:24:17.170Z,12.78
2023-03-25T18:26:44.913Z,12.79
2023-03-25T18:29:23.120Z,12.78
2023-03-25T18:31:50.945Z,12.53
2023-03-25T18:34:18.727Z,12.53
2023-03-25T18:36:45.544Z,12.70
2023-03-25T18:39:24.547Z,12.57
2023-03-25T18:41:51.707Z,12.58
2023-03-25T18:44:18.502Z,12.61
2023-03-25T18:46:46.353Z,12.55
2023-03-25T18:49:19.416Z,12.44
2023-03-25T18:51:48.279Z,12.41
2023-03-25T18:54:16.271Z,12.62
2023-03-25T18:56:43.424Z,12.48
2023-03-25T18:59:12.087Z,12.49
2023-03-25T19:01:39.270Z,12.41
2023-03-25T19:04:06.176Z,12.37
2023-03-25T19:06:33.168Z,12.41
2023-03-25T19:09:00.538Z,12.24
2023-03-25T19:11:28.061Z,12.23
2023-03-25T19:13:56.019Z,12.27
2023-03-25T19:16:22.851Z,12.26
2023-03-25T19:18:49.745Z,12.23
2023-03-25T19:21:18.944Z,12.11
2023-03-25T19:23:46.854Z,12.13
2023-03-25T19:26:14.358Z,11.93
2023-03-25T19:28:41.719Z,12.16
2023-03-25T19:31:12.173Z,12.17
2023-03-25T19:33:39.075Z,12.16
2023-03-25T19:36:06.292Z,12.10
2023-03-25T19:38:33.216Z,12.05
2023-03-25T19:41:11.989Z,11.95
2023-03-25T19:43:39.186Z,12.02
2023-03-25T19:46:07.122Z,12.00
2023-03-25T19:48:35.476Z,11.87
2023-03-25T19:51:02.681Z,12.02
2023-03-25T19:53:30.296Z,12.01
2023-03-25T19:56:01.831Z,11.91
2023-03-25T19:58:28.873Z,11.92
2023-03-25T20:00:56.026Z,11.91
2023-03-25T20:03:23.750Z,11.79
2023-03-25T20:05:57.824Z,11.80
2023-03-25T20:08:25.676Z,11.76
2023-03-25T20:10:53.249Z,11.78
2023-03-25T20:13:20.799Z,11.61
2023-03-25T20:15:49.737Z,11.65
2023-03-25T20:18:17.008Z,11.46
2023-03-25T20:20:44.197Z,11.50
2023-03-25T20:23:11.036Z,11.44
2023-03-25T20:25:38.494Z,11.49
2023-03-25T20:28:06.083Z,11.44
2023-03-25T20:30:35.233Z,11.49
2023-03-25T20:33:02.486Z,11.51
2023-03-25T20:35:30.523Z,11.46
2023-03-25T20:37:57.698Z,11.26
2023-03-25T20:40:33.744Z,11.42
2023-03-25T20:43:08.972Z,11.38
2023-03-25T20:45:36.042Z,11.41
2023-03-25T20:48:03.426Z,11.43
2023-03-25T20:50:30.258Z,11.49
2023-03-25T20:52:57.148Z,11.46
2023-03-25T20:55:23.978Z,11.44
2023-03-25T20:57:51.873Z,11.45
2023-03-25T21:00:19.506Z,11.47
2023-03-25T21:02:47.773Z,11.45
2023-03-25T21:05:14.748Z,11.41
2023-03-25T21:07:41.639Z,11.53
2023-03-25T21:10:09.291Z,11.54
2023-03-25T21:12:43.951Z,11.53
2023-03-25T21:15:14.417Z,11.55
2023-03-25T21:17:42.128Z,11.35
2023-03-25T21:20:10.211Z,11.46
2023-03-25T21:22:43.124Z,11.45
2023-03-25T21:25:11.250Z,11.54
2023-03-25T21:27:39.757Z,11.44
2023-03-25T21:30:11.790Z,11.49
2023-03-25T21:32:39.249Z,11.26
2023-03-25T21:35:07.830Z,11.49
2023-03-25T21:37:38.501Z,11.43
2023-03-25T21:40:10.488Z,11.41
2023-03-25T21:42:38.739Z,11.40
2023-03-25T21:45:07.979Z,11.39
2023-03-25T21:47:36.407Z,11.42
2023-03-25T21:50:09.536Z,11.31
2023-03-25T21:52:38.018Z,11.32
2023-03-25T21:55:05.506Z,11.13
2023-03-25T21:57:37.540Z,11.22
2023-03-25T22:00:07.616Z,11.13
2023-03-25T22:02:34.451Z,11.17
2023-03-25T22:05:01.284Z,11.23
2023-03-25T22:07:28.089Z,11.24
2023-03-25T22:09:54.947Z,11.24
2023-03-25T22:12:21.848Z,11.17
2023-03-25T22:14:48.676Z,11.31
2023-03-25T22:17:15.577Z,11.24
2023-03-25T22:19:42.469Z,11.36
2023-03-25T22:22:11.111Z,11.41
2023-03-25T22:24:37.935Z,11.26
2023-03-25T22:27:04.855Z,11.24
2023-03-25T22:29:31.657Z,11.32
2023-03-25T22:31:58.457Z,11.45
2023-03-25T22:34:28.677Z,11.51
2023-03-25T22:36:55.503Z,11.44
2023-03-25T22:39:25.151Z,11.42
2023-03-25T22:41:52.285Z,11.56
2023-03-25T22:44:19.914Z,11.42
2023-03-25T22:46:48.791Z,11.27
2023-03-25T22:49:17.028Z,11.41
2023-03-25T22:51:44.236Z,11.26
2023-03-25T22:54:11.037Z,11.38
2023-03-25T22:56:38.737Z,11.08
2023-03-25T22:59:07.622Z,10.99
2023-03-25T23:01:35.889Z,10.99
2023-03-25T23:04:03.107Z,11.18
2023-03-25T23:06:31.588Z,11.23
2023-03-25T23:08:58.599Z,11.10
2023-03-25T23:11:29.523Z,11.10
2023-03-25T23:14:05.931Z,11.07
2023-03-25T23:16:34.465Z,10.97
2023-03-25T23:19:04.270Z,11.04
2023-03-25T23:21:32.972Z,10.99
2023-03-25T23:24:03.236Z,11.00
2023-03-25T23:26:37.109Z,10.96
2023-03-25T23:29:08.776Z,11.00
2023-03-25T23:31:37.606Z,11.03
2023-03-25T23:34:07.730Z,11.13
2023-03-25T23:36:36.954Z,11.15
2023-03-25T23:39:12.180Z,11.25
2023-03-25T23:41:39.183Z,10.98
2023-03-25T23:44:06.324Z,10.95
2023-03-25T23:46:34.107Z,11.06
2023-03-25T23:49:03.727Z,11.03
2023-03-25T23:51:36.485Z,11.14
2023-03-25T23:54:06.354Z,11.02
2023-03-25T23:56:33.659Z,11.06
2023-03-25T23:59:01.476Z,11.00
